createdAt,value
2018-01-05T00:01:28.390Z,96867.29
2018-01-05T00:03:57.517Z,96870.42
2018-01-05T00:06:25.916Z,96873.45
2018-01-05T00:08:54.956Z,96881.34
2018-01-05T00:11:23.774Z,96881.05
2018-01-05T00:13:52.142Z,96881.22
2018-01-05T00:16:20.667Z,96882.13
2018-01-05T00:18:49.793Z,96881.81
2018-01-05T00:21:18.104Z,96886.08
2018-01-05T00:23:46.955Z,96891.33
2018-01-05T00:26:16.072Z,96887.39
2018-01-05T00:28:44.955Z,96883.14
2018-01-05T00:31:13.407Z,96884.92
2018-01-05T00:33:42.544Z,96876.84
2018-01-05T00:36:11.540Z,96879.34
2018-01-05T00:38:39.910Z,96879.54
2018-01-05T00:41:09.281Z,96887.84
2018-01-05T00:43:37.901Z,96884.88
2018-01-05T00:46:06.313Z,96885.41
2018-01-05T00:48:34.696Z,96886.50
2018-01-05T00:51:03.192Z,96878.55
2018-01-05T00:53:32.127Z,96881.64
2018-01-05T00:56:00.800Z,96883.77
2018-01-05T00:58:29.121Z,96880.52
2018-01-05T01:00:58.599Z,96883.16
2018-01-05T01:03:27.573Z,96884.02
2018-01-05T01:05:55.891Z,96893.22
2018-01-05T01:08:24.984Z,96900.25
2018-01-05T01:10:54.216Z,96900.28
2018-01-05T01:13:22.807Z,96902.30
2018-01-05T01:15:51.409Z,96915.73
2018-01-05T01:18:20.463Z,96914.33
2018-01-05T01:20:49.264Z,96913.94
2018-01-05T01:23:18.004Z,96915.31
2018-01-05T01:25:46.329Z,96923.00
2018-01-05T01:28:14.648Z,96919.27
2018-01-05T01:30:44.212Z,96921.48
2018-01-05T01:33:13.441Z,96910.27
2018-01-05T01:35:41.883Z,96905.81
2018-01-05T01:38:10.703Z,96914.09
2018-01-05T01:40:39.044Z,96919.98
2018-01-05T01:43:07.388Z,96943.36
2018-01-05T01:45:36.564Z,96960.98
2018-01-05T01:48:04.879Z,96981.91
2018-01-05T01:50:33.232Z,96979.39
2018-01-05T01:53:02.237Z,96979.15
2018-01-05T01:55:30.579Z,96971.02
2018-01-05T01:57:58.888Z,96975.61
2018-01-05T02:00:27.779Z,96971.50
2018-01-05T02:02:56.784Z,96981.50
2018-01-05T02:05:25.096Z,96985.36
2018-01-05T02:07:54.359Z,96976.16
2018-01-05T02:10:22.684Z,96967.11
2018-01-05T02:12:51.715Z,96965.70
2018-01-05T02:15:20.752Z,96969.61
2018-01-05T02:17:49.770Z,96976.55
2018-01-05T02:20:18.093Z,96975.00
2018-01-05T02:22:47.112Z,96971.34
2018-01-05T02:25:15.441Z,96972.80
2018-01-05T02:27:44.652Z,96972.82
2018-01-05T02:30:13.921Z,96969.52
2018-01-05T02:32:43.607Z,96977.25
2018-01-05T02:35:11.952Z,96986.88
2018-01-05T02:37:41.761Z,96986.06
2018-01-05T02:40:10.381Z,96979.64
2018-01-05T02:42:38.721Z,96979.59
2018-01-05T02:45:07.388Z,96971.85
2018-01-05T02:47:36.608Z,96969.01
2018-01-05T02:50:05.988Z,96964.89
2018-01-05T02:52:34.334Z,96970.47
2018-01-05T02:55:03.888Z,96959.38
2018-01-05T02:57:32.815Z,96968.31
2018-01-05T03:00:01.263Z,96957.93
2018-01-05T03:02:30.012Z,96960.25
2018-01-05T03:04:58.502Z,96964.55
2018-01-05T03:07:26.980Z,96952.73
2018-01-05T03:09:55.843Z,96954.67
2018-01-05T03:12:24.165Z,96956.93
2018-01-05T03:14:52.553Z,96951.84
2018-01-05T03:17:21.517Z,96944.19
2018-01-05T03:19:49.821Z,96939.30
2018-01-05T03:22:18.596Z,96924.92
2018-01-05T03:24:47.192Z,96923.22
2018-01-05T03:27:16.458Z,96938.00
2018-01-05T03:29:45.508Z,96930.98
2018-01-05T03:32:14.235Z,96932.59
2018-01-05T03:34:42.972Z,96932.89
2018-01-05T03:37:12.701Z,96935.14
2018-01-05T03:39:41.712Z,96940.16
2018-01-05T03:42:10.020Z,96946.20
2018-01-05T03:44:38.379Z,96943.25
2018-01-05T03:47:07.377Z,96943.47
2018-01-05T03:49:37.775Z,96944.59
2018-01-05T03:52:07.242Z,96942.95
2018-01-05T03:54:35.540Z,96946.01
2018-01-05T03:57:03.852Z,96946.98
2018-01-05T03:59:32.916Z,96933.50
2018-01-05T04:02:01.964Z,96930.27
2018-01-05T04:04:30.439Z,96918.69
2018-01-05T04:06:58.829Z,96905.24
2018-01-05T04:09:27.755Z,96913.07
2018-01-05T04:11:57.156Z,96898.23
2018-01-05T04:14:25.900Z,96897.89
2018-01-05T04:16:54.981Z,96898.42
2018-01-05T04:19:23.491Z,96913.34
2018-01-05T04:21:52.415Z,96913.92
2018-01-05T04:24:21.196Z,96904.27
2018-01-05T04:26:49.665Z,96917.37
2018-01-05T04:29:18.024Z,96917.30
2018-01-05T04:31:47.055Z,96916.95
2018-01-05T04:34:15.968Z,96917.45
2018-01-05T04:36:44.420Z,96919.51
2018-01-05T04:39:13.467Z,96920.63
2018-01-05T04:41:43.364Z,96927.17
2018-01-05T04:44:12.520Z,96932.64
2018-01-05T04:46:42.350Z,96922.53
2018-01-05T04:49:10.692Z,96925.97
2018-01-05T04:51:39.057Z,96917.11
2018-01-05T04:54:07.211Z,96920.24
2018-01-05T04:56:35.528Z,96910.10
2018-01-05T04:59:04.007Z,96913.42
2018-01-05T05:01:32.862Z,96906.56
2018-01-05T05:04:01.200Z,96892.31
2018-01-05T05:06:29.568Z,96887.77
2018-01-05T05:08:58.507Z,96876.50
2018-01-05T05:11:26.928Z,96869.25
2018-01-05T05:13:55.791Z,96862.83
2018-01-05T05:16:24.096Z,96852.43
2018-01-05T05:18:52.475Z,96840.33
2018-01-05T05:21:20.844Z,96835.08
2018-01-05T05:23:49.825Z,96832.78
2018-01-05T05:26:18.234Z,96837.27
2018-01-05T05:28:47.351Z,96836.83
2018-01-05T05:31:16.447Z,96835.56
2018-01-05T05:33:45.416Z,96842.09
2018-01-05T05:36:13.728Z,96848.98
2018-01-05T05:38:42.915Z,96840.64
2018-01-05T05:41:11.224Z,96844.73
2018-01-05T05:43:40.770Z,96839.76
2018-01-05T05:46:10.085Z,96832.44
2018-01-05T05:48:38.464Z,96826.98
2018-01-05T05:51:06.780Z,96818.75
2018-01-05T05:53:35.907Z,96811.29
2018-01-05T05:56:04.780Z,96822.94
2018-01-05T05:58:33.879Z,96813.64
2018-01-05T06:01:03.015Z,96819.07
2018-01-05T06:03:33.069Z,96813.80
2018-01-05T06:06:02.049Z,96823.02
2018-01-05T06:08:31.271Z,96820.49
2018-01-05T06:11:00.340Z,96819.41
2018-01-05T06:13:29.440Z,96814.33
2018-01-05T06:15:57.960Z,96812.80
2018-01-05T06:18:26.808Z,96820.84
2018-01-05T06:20:55.804Z,96821.48
2018-01-05T06:23:24.237Z,96817.85
2018-01-05T06:25:52.644Z,96822.14
2018-01-05T06:28:21.491Z,96822.37
2018-01-05T06:30:50.692Z,96815.40
2018-01-05T06:33:19.003Z,96811.95
2018-01-05T06:35:48.439Z,96805.28
2018-01-05T06:38:17.812Z,96795.03
2018-01-05T06:40:45.960Z,96799.80
2018-01-05T06:43:14.311Z,96797.45
2018-01-05T06:45:43.584Z,96797.80
2018-01-05T06:48:12.464Z,96802.05
2018-01-05T06:50:40.780Z,96805.39
2018-01-05T06:53:09.466Z,96794.85
2018-01-05T06:55:39.796Z,96790.78
2018-01-05T06:58:08.125Z,96789.27
2018-01-05T07:00:36.517Z,96786.12
2018-01-05T07:03:05.453Z,96776.16
2018-01-05T07:05:33.791Z,96781.53
2018-01-05T07:08:02.879Z,96781.16
2018-01-05T07:10:31.187Z,96777.50
2018-01-05T07:13:00.172Z,96782.13
2018-01-05T07:15:28.553Z,96781.02
2018-01-05T07:17:57.853Z,96790.00
2018-01-05T07:20:26.826Z,96791.36
2018-01-05T07:22:55.891Z,96793.41
2018-01-05T07:25:24.340Z,96796.75
2018-01-05T07:27:53.260Z,96805.33
2018-01-05T07:30:22.447Z,96804.08
2018-01-05T07:32:50.956Z,96802.66
2018-01-05T07:35:19.271Z,96804.61
2018-01-05T07:37:48.760Z,96793.69
2018-01-05T07:40:17.327Z,96783.60
2018-01-05T07:42:46.059Z,96776.63
2018-01-05T07:45:14.377Z,96776.67
2018-01-05T07:47:42.776Z,96787.45
2018-01-05T07:50:11.427Z,96793.48
2018-01-05T07:52:40.051Z,96799.33
2018-01-05T07:55:08.708Z,96786.75
2018-01-05T07:57:37.363Z,96797.28
2018-01-05T08:00:05.815Z,96792.22
2018-01-05T08:02:35.132Z,96790.88
2018-01-05T08:05:03.848Z,96799.63
2018-01-05T08:07:32.169Z,96810.15
2018-01-05T08:10:01.108Z,96814.90
2018-01-05T08:12:29.471Z,96816.72
2018-01-05T08:14:57.794Z,96813.95
2018-01-05T08:17:26.195Z,96817.15
2018-01-05T08:19:54.791Z,96820.23
2018-01-05T08:22:23.949Z,96820.59
2018-01-05T08:24:52.932Z,96811.44
2018-01-05T08:27:21.756Z,96809.25
2018-01-05T08:29:50.683Z,96807.72
2018-01-05T08:32:19.033Z,96822.23
2018-01-05T08:34:48.060Z,96818.27
2018-01-05T08:37:16.510Z,96820.13
2018-01-05T08:39:44.964Z,96826.17
2018-01-05T08:42:13.763Z,96827.15
2018-01-05T08:44:42.076Z,96821.92
2018-01-05T08:47:13.418Z,96826.88
2018-01-05T08:49:42.841Z,96818.46
2018-01-05T08:52:11.536Z,96810.64
2018-01-05T08:54:40.588Z,96794.23
2018-01-05T08:57:09.027Z,96796.08
2018-01-05T08:59:38.083Z,96799.98
2018-01-05T09:02:07.216Z,96809.69
2018-01-05T09:04:36.388Z,96807.80
2018-01-05T09:07:04.711Z,96811.56
2018-01-05T09:09:33.892Z,96817.64
2018-01-05T09:12:02.328Z,96821.02
2018-01-05T09:14:31.136Z,96818.73
2018-01-05T09:17:01.239Z,96804.34
2018-01-05T09:19:29.564Z,96801.17
2018-01-05T09:21:58.356Z,96812.48
2018-01-05T09:24:26.916Z,96806.83
2018-01-05T09:26:55.804Z,96807.73
2018-01-05T09:29:25.388Z,96807.73
2018-01-05T09:31:54.932Z,96810.79
2018-01-05T09:34:23.728Z,96834.28
2018-01-05T09:36:52.176Z,96832.20
2018-01-05T09:39:21.388Z,96845.42
2018-01-05T09:41:49.712Z,96849.55
2018-01-05T09:44:18.602Z,96841.59
2018-01-05T09:46:46.974Z,96833.06
2018-01-05T09:49:16.019Z,96830.52
2018-01-05T09:51:44.345Z,96836.31
2018-01-05T09:54:12.793Z,96842.89
2018-01-05T09:56:41.161Z,96832.21
2018-01-05T09:59:09.860Z,96828.84
2018-01-05T10:01:38.247Z,96828.44
2018-01-05T10:04:07.319Z,96825.38
2018-01-05T10:06:36.427Z,96815.17
2018-01-05T10:09:04.801Z,96813.14
2018-01-05T10:11:33.948Z,96806.88
2018-01-05T10:14:02.263Z,96805.80
2018-01-05T10:16:31.360Z,96798.09
2018-01-05T10:19:00.310Z,96801.06
2018-01-05T10:21:29.573Z,96801.05
2018-01-05T10:23:57.954Z,96797.84
2018-01-05T10:26:26.743Z,96789.69
2018-01-05T10:28:55.936Z,96789.81
2018-01-05T10:31:24.999Z,96796.95
2018-01-05T10:33:54.240Z,96789.21
2018-01-05T10:36:23.267Z,96784.37
2018-01-05T10:38:52.356Z,96785.75
2018-01-05T10:41:21.300Z,96782.77
2018-01-05T10:43:50.440Z,96778.56
2018-01-05T10:46:18.790Z,96766.64
2018-01-05T10:48:47.807Z,96756.84
2018-01-05T10:51:16.275Z,96754.23
2018-01-05T10:53:45.304Z,96756.88
2018-01-05T10:56:14.472Z,96746.20
2018-01-05T10:58:43.389Z,96743.78
2018-01-05T11:01:11.900Z,96739.36
2018-01-05T11:03:40.872Z,96738.59
2018-01-05T11:06:09.964Z,96741.57
2018-01-05T11:08:39.060Z,96735.62
2018-01-05T11:11:08.010Z,96737.05
2018-01-05T11:13:36.468Z,96729.14
2018-01-05T11:16:05.352Z,96715.44
2018-01-05T11:18:33.774Z,96714.77
2018-01-05T11:21:02.832Z,96718.63
2018-01-05T11:23:31.908Z,96722.77
2018-01-05T11:26:06.215Z,96723.27
2018-01-05T11:28:35.924Z,96715.67
2018-01-05T11:31:04.872Z,96708.95
2018-01-05T11:33:34.929Z,96706.48
2018-01-05T11:36:03.671Z,96712.23
2018-01-05T11:38:32.143Z,96707.00
2018-01-05T11:41:00.820Z,96707.59
2018-01-05T11:43:29.547Z,96711.27
2018-01-05T11:45:57.880Z,96716.42
2018-01-05T11:48:27.096Z,96714.28
2018-01-05T11:50:56.001Z,96712.19
2018-01-05T11:53:24.420Z,96716.31
2018-01-05T11:55:54.123Z,96707.05
2018-01-05T11:58:22.447Z,96710.17
2018-01-05T12:00:52.439Z,96707.06
2018-01-05T12:03:21.491Z,96697.19
2018-01-05T12:05:49.803Z,96694.27
2018-01-05T12:08:18.171Z,96690.36
2018-01-05T12:10:47.168Z,96686.00
2018-01-05T12:13:15.491Z,96670.73
2018-01-05T12:15:44.192Z,96660.56
2018-01-05T12:18:12.985Z,96657.87
2018-01-05T12:20:41.890Z,96662.73
2018-01-05T12:23:11.313Z,96659.05
2018-01-05T12:25:40.427Z,96663.00
2018-01-05T12:28:09.097Z,96662.32
2018-01-05T12:30:37.410Z,96663.20
2018-01-05T12:33:06.914Z,96656.14
2018-01-05T12:35:35.223Z,96648.68
2018-01-05T12:38:04.099Z,96645.30
2018-01-05T12:40:32.471Z,96636.38
2018-01-05T12:43:01.509Z,96635.66
2018-01-05T12:45:29.824Z,96637.83
2018-01-05T12:47:58.894Z,96646.13
2018-01-05T12:50:27.930Z,96637.77
2018-01-05T12:52:56.244Z,96638.17
2018-01-05T12:55:24.724Z,96634.74
2018-01-05T12:57:53.032Z,96637.84
2018-01-05T13:00:21.504Z,96640.28
2018-01-05T13:02:50.157Z,96650.34
2018-01-05T13:05:18.476Z,96649.41
2018-01-05T13:07:47.492Z,96649.09
2018-01-05T13:10:15.855Z,96642.81
2018-01-05T13:12:44.924Z,96645.05
2018-01-05T13:15:13.322Z,96647.13
2018-01-05T13:17:42.145Z,96640.11
2018-01-05T13:20:10.515Z,96641.54
2018-01-05T13:22:38.838Z,96642.88
2018-01-05T13:25:07.965Z,96641.28
2018-01-05T13:27:37.044Z,96636.83
2018-01-05T13:30:06.108Z,96643.58
2018-01-05T13:32:34.585Z,96637.14
2018-01-05T13:35:02.896Z,96645.70
2018-01-05T13:37:31.288Z,96650.94
2018-01-05T13:40:00.067Z,96654.05
2018-01-05T13:42:29.124Z,96655.86
2018-01-05T13:44:57.720Z,96650.13
2018-01-05T13:47:26.085Z,96651.72
2018-01-05T13:49:54.747Z,96651.98
2018-01-05T13:52:27.169Z,96645.74
2018-01-05T13:54:55.572Z,96652.73
2018-01-05T13:57:24.496Z,96651.86
2018-01-05T13:59:53.746Z,96652.88
2018-01-05T14:02:22.168Z,96647.09
2018-01-05T14:04:50.495Z,96642.22
2018-01-05T14:07:19.452Z,96642.10
2018-01-05T14:09:48.404Z,96638.30
2018-01-05T14:12:17.436Z,96638.02
2018-01-05T14:14:45.845Z,96638.64
2018-01-05T14:17:14.809Z,96634.16
2018-01-05T14:19:43.213Z,96634.58
2018-01-05T14:22:12.354Z,96642.78
2018-01-05T14:24:41.451Z,96647.13
2018-01-05T14:27:10.300Z,96642.70
2018-01-05T14:29:38.689Z,96648.75
2018-01-05T14:32:07.104Z,96652.95
2018-01-05T14:34:35.432Z,96650.52
2018-01-05T14:37:03.772Z,96659.70
2018-01-05T14:39:32.568Z,96660.81
2018-01-05T14:42:01.023Z,96654.24
2018-01-05T14:44:30.064Z,96662.33
2018-01-05T14:46:58.402Z,96662.27
2018-01-05T14:49:27.391Z,96662.11
2018-01-05T14:51:56.896Z,96666.39
2018-01-05T14:54:25.835Z,96669.39
2018-01-05T14:56:54.206Z,96674.36
2018-01-05T14:59:22.540Z,96677.08
2018-01-05T15:01:51.632Z,96687.02
2018-01-05T15:04:20.173Z,96686.42
2018-01-05T15:06:48.474Z,96688.62
2018-01-05T15:09:17.809Z,96698.74
2018-01-05T15:11:46.905Z,96709.86
2018-01-05T15:14:15.820Z,96722.78
2018-01-05T15:16:44.175Z,96732.49
2018-01-05T15:19:13.192Z,96737.70
2018-01-05T15:21:41.747Z,96742.13
2018-01-05T15:24:10.459Z,96744.45
2018-01-05T15:26:38.768Z,96754.86
2018-01-05T15:29:07.104Z,96764.52
2018-01-05T15:31:35.580Z,96760.83
2018-01-05T15:34:03.888Z,96769.92
2018-01-05T15:36:32.186Z,96775.54
2018-01-05T15:39:01.103Z,96777.89
2018-01-05T15:41:29.492Z,96777.55
2018-01-05T15:43:58.452Z,96773.27
2018-01-05T15:46:27.346Z,96775.92
2018-01-05T15:48:55.652Z,96792.03
2018-01-05T15:51:25.908Z,96798.94
2018-01-05T15:53:54.865Z,96795.62
2018-01-05T15:56:24.046Z,96799.25
2018-01-05T15:58:54.742Z,96801.52
2018-01-05T16:01:23.780Z,96799.17
2018-01-05T16:03:52.813Z,96785.92
2018-01-05T16:06:22.150Z,96799.56
2018-01-05T16:08:50.543Z,96804.44
2018-01-05T16:11:18.860Z,96810.40
2018-01-05T16:13:47.694Z,96807.59
2018-01-05T16:16:16.744Z,96802.98
2018-01-05T16:18:45.808Z,96810.51
2018-01-05T16:21:14.218Z,96826.39
2018-01-05T16:23:43.076Z,96828.36
2018-01-05T16:26:11.408Z,96825.55
2018-01-05T16:28:39.877Z,96835.37
2018-01-05T16:31:08.781Z,96839.83
2018-01-05T16:33:37.527Z,96845.71
2018-01-05T16:36:05.897Z,96852.80
2018-01-05T16:38:34.216Z,96853.86
2018-01-05T16:41:02.534Z,96853.91
2018-01-05T16:43:30.905Z,96851.25
2018-01-05T16:45:59.839Z,96850.63
2018-01-05T16:48:28.753Z,96852.00
2018-01-05T16:50:57.101Z,96855.37
2018-01-05T16:53:25.561Z,96858.33
2018-01-05T16:55:54.726Z,96858.69
2018-01-05T16:58:23.908Z,96863.70
2018-01-05T17:00:52.228Z,96866.22
2018-01-05T17:03:20.906Z,96871.36
2018-01-05T17:05:49.399Z,96872.08
2018-01-05T17:08:17.823Z,96879.47
2018-01-05T17:10:46.303Z,96878.78
2018-01-05T17:13:15.156Z,96875.72
2018-01-05T17:15:43.895Z,96880.30
2018-01-05T17:18:12.647Z,96886.89
2018-01-05T17:20:41.843Z,96884.77
2018-01-05T17:23:10.699Z,96879.52
2018-01-05T17:25:39.647Z,96887.53
2018-01-05T17:28:08.126Z,96891.83
2018-01-05T17:30:36.457Z,96899.72
2018-01-05T17:33:04.872Z,96905.29
2018-01-05T17:35:33.190Z,96904.44
2018-01-05T17:38:02.020Z,96906.34
2018-01-05T17:40:30.357Z,96919.63
2018-01-05T17:42:58.766Z,96914.66
2018-01-05T17:45:27.179Z,96917.59
2018-01-05T17:47:56.347Z,96921.41
2018-01-05T17:50:24.872Z,96933.37
2018-01-05T17:52:53.248Z,96928.67
2018-01-05T17:55:22.316Z,96937.28
2018-01-05T17:57:50.624Z,96949.89
2018-01-05T18:00:19.795Z,96956.75
2018-01-05T18:02:48.616Z,96960.36
2018-01-05T18:05:16.968Z,96963.39
2018-01-05T18:07:45.317Z,96962.72
2018-01-05T18:10:13.722Z,96967.70
2018-01-05T18:12:42.260Z,96970.64
2018-01-05T18:15:10.757Z,96974.74
2018-01-05T18:17:39.109Z,96976.11
2018-01-05T18:20:07.466Z,96980.70
2018-01-05T18:22:35.813Z,96980.11
2018-01-05T18:25:04.118Z,96979.45
2018-01-05T18:27:33.238Z,96977.58
2018-01-05T18:30:01.649Z,96978.27
2018-01-05T18:32:30.010Z,96983.34
2018-01-05T18:34:58.322Z,96987.52
2018-01-05T18:37:26.852Z,96979.30
2018-01-05T18:39:56.419Z,96980.46
2018-01-05T18:42:24.728Z,96985.45
2018-01-05T18:44:53.123Z,96985.23
2018-01-05T18:47:21.747Z,96984.30
2018-01-05T18:49:50.162Z,96990.35
2018-01-05T18:52:19.249Z,96987.30
2018-01-05T18:54:48.514Z,96991.52
2018-01-05T18:57:22.171Z,96989.48
2018-01-05T18:59:50.578Z,96994.55
2018-01-05T19:02:18.942Z,96996.13
2018-01-05T19:04:47.788Z,96988.70
2018-01-05T19:07:16.167Z,96990.95
2018-01-05T19:09:44.628Z,96991.06
2018-01-05T19:12:13.102Z,96988.03
2018-01-05T19:14:41.483Z,96988.52
2018-01-05T19:17:09.983Z,96974.45
2018-01-05T19:19:38.412Z,96979.06
2018-01-05T19:22:06.724Z,96982.40
2018-01-05T19:24:35.081Z,96981.50
2018-01-05T19:27:03.473Z,96993.23
2018-01-05T19:29:31.835Z,96998.39
2018-01-05T19:32:00.373Z,96997.00
2018-01-05T19:34:28.744Z,97004.21
2018-01-05T19:36:57.882Z,97003.27
2018-01-05T19:39:26.428Z,97004.70
2018-01-05T19:41:54.800Z,97005.98
2018-01-05T19:44:23.164Z,97014.38
2018-01-05T19:46:51.582Z,97016.83
2018-01-05T19:49:19.957Z,97023.75
2018-01-05T19:51:48.336Z,97020.24
2018-01-05T19:54:17.590Z,97021.99
2018-01-05T19:56:45.946Z,97019.94
2018-01-05T19:59:14.310Z,97020.73
2018-01-05T20:01:42.721Z,97023.27
2018-01-05T20:04:11.151Z,97029.89
2018-01-05T20:06:40.286Z,97040.94
2018-01-05T20:09:08.659Z,97039.75
2018-01-05T20:11:37.104Z,97032.91
2018-01-05T20:14:05.524Z,97040.03
2018-01-05T20:16:33.902Z,97051.34
2018-01-05T20:19:02.311Z,97056.24
2018-01-05T20:21:30.680Z,97059.75
2018-01-05T20:23:59.048Z,97053.48
2018-01-05T20:26:27.564Z,97054.28
2018-01-05T20:28:55.944Z,97048.31
2018-01-05T20:31:24.319Z,97050.00
2018-01-05T20:33:52.739Z,97047.36
2018-01-05T20:36:21.113Z,97046.39
2018-01-05T20:38:49.475Z,97048.23
2018-01-05T20:41:18.687Z,97045.98
2018-01-05T20:43:47.091Z,97048.80
2018-01-05T20:46:15.459Z,97047.35
2018-01-05T20:48:44.171Z,97046.56
2018-01-05T20:51:12.531Z,97050.48
2018-01-05T20:53:40.900Z,97060.61
2018-01-05T20:56:09.327Z,97063.08
2018-01-05T20:58:37.770Z,97065.41
2018-01-05T21:01:06.139Z,97069.99
2018-01-05T21:03:34.520Z,97072.11
2018-01-05T21:06:02.937Z,97076.61
2018-01-05T21:08:31.729Z,97076.81
2018-01-05T21:11:00.096Z,97080.41
2018-01-05T21:13:28.454Z,97088.12
2018-01-05T21:15:56.891Z,97087.83
2018-01-05T21:18:25.254Z,97094.84
2018-01-05T21:20:53.633Z,97094.05
2018-01-05T21:23:22.051Z,97095.25
2018-01-05T21:25:50.459Z,97099.94
2018-01-05T21:28:18.979Z,97096.02
2018-01-05T21:30:47.459Z,97104.02
2018-01-05T21:33:16.314Z,97107.14
2018-01-05T21:35:44.705Z,97117.91
2018-01-05T21:38:13.117Z,97121.30
2018-01-05T21:40:41.543Z,97117.20
2018-01-05T21:43:09.915Z,97116.22
2018-01-05T21:45:38.386Z,97120.02
2018-01-05T21:48:06.769Z,97121.98
2018-01-05T21:53:15.417Z,97125.11
2018-01-05T21:55:43.775Z,97130.88
2018-01-05T21:58:12.137Z,97129.89
2018-01-05T22:00:41.321Z,97133.97
2018-01-05T22:03:09.700Z,97138.56
2018-01-05T22:05:38.067Z,97142.37
2018-01-05T22:08:06.543Z,97137.22
2018-01-05T22:10:34.918Z,97138.96
2018-01-05T22:13:03.229Z,97142.00
2018-01-05T22:15:31.681Z,97145.80
2018-01-05T22:17:59.991Z,97148.63
2018-01-05T22:20:29.167Z,97150.39
2018-01-05T22:22:57.614Z,97151.06
2018-01-05T22:25:26.053Z,97153.33
2018-01-05T22:27:55.180Z,97148.15
2018-01-05T22:30:23.568Z,97154.09
2018-01-05T22:32:51.938Z,97152.45
2018-01-05T22:35:20.443Z,97160.47
2018-01-05T22:37:48.872Z,97157.34
2018-01-05T22:40:17.964Z,97164.75
2018-01-05T22:42:47.097Z,97159.00
2018-01-05T22:45:15.638Z,97164.77
2018-01-05T22:47:43.959Z,97164.95
2018-01-05T22:50:12.317Z,97161.81
2018-01-05T22:52:40.725Z,97163.87
2018-01-05T22:55:09.079Z,97166.90
2018-01-05T22:57:37.523Z,97168.63
2018-01-05T23:00:05.840Z,97172.84
2018-01-05T23:02:34.195Z,97170.67
2018-01-05T23:05:02.544Z,97177.79
2018-01-05T23:07:30.898Z,97178.67
2018-01-05T23:09:59.218Z,97180.82
2018-01-05T23:12:27.907Z,97177.89
2018-01-05T23:14:57.339Z,97178.57
2018-01-05T23:17:26.415Z,97171.63
2018-01-05T23:19:55.696Z,97172.02
2018-01-05T23:22:24.603Z,97175.93
2018-01-05T23:24:53.699Z,97179.06
2018-01-05T23:27:22.108Z,97184.38
2018-01-05T23:29:51.020Z,97188.46
2018-01-05T23:32:19.674Z,97191.11
2018-01-05T23:34:48.470Z,97193.03
2018-01-05T23:37:16.914Z,97197.76
2018-01-05T23:39:45.273Z,97209.28
2018-01-05T23:42:14.390Z,97213.86
2018-01-05T23:44:43.966Z,97212.31
2018-01-05T23:47:12.752Z,97205.02
2018-01-05T23:49:41.337Z,97198.58
2018-01-05T23:52:09.904Z,97193.68
2018-01-05T23:54:38.896Z,97196.39
2018-01-05T23:57:08.307Z,97196.77
2018-01-05T23:59:37.190Z,97204.39
